sensor_id;sensor_type;location;lat;lon;timestamp;pressure;altitude;pressure_sealevel;temperature;humidity
30708;BME280;17458;48.958;8.284;2023-07-28T00:00:35;99582.00;;;24.38;58.48
30708;BME280;17458;48.958;8.284;2023-07-28T00:03:19;99578.38;;;24.38;57.80
30708;BME280;17458;48.958;8.284;2023-07-28T00:06:03;99570.34;;;24.32;58.76
30708;BME280;17458;48.958;8.284;2023-07-28T00:08:47;99583.88;;;23.80;61.95
30708;BME280;17458;48.958;8.284;2023-07-28T00:11:31;99579.13;;;23.94;60.52
30708;BME280;17458;48.958;8.284;2023-07-28T00:14:18;99580.84;;;23.99;60.87
30708;BME280;17458;48.958;8.284;2023-07-28T00:17:02;99576.78;;;23.71;62.60
30708;BME280;17458;48.958;8.284;2023-07-28T00:19:47;99569.44;;;23.76;62.18
30708;BME280;17458;48.958;8.284;2023-07-28T00:22:31;99564.25;;;23.61;62.64
30708;BME280;17458;48.958;8.284;2023-07-28T00:25:15;99567.63;;;23.78;61.25
30708;BME280;17458;48.958;8.284;2023-07-28T00:27:59;99563.28;;;23.68;62.56
30708;BME280;17458;48.958;8.284;2023-07-28T00:30:43;99559.00;;;23.49;62.90
30708;BME280;17458;48.958;8.284;2023-07-28T00:33:27;99552.66;;;23.53;63.16
30708;BME280;17458;48.958;8.284;2023-07-28T00:36:11;99549.81;;;23.60;62.42
30708;BME280;17458;48.958;8.284;2023-07-28T00:38:55;99561.56;;;23.61;62.45
30708;BME280;17458;48.958;8.284;2023-07-28T00:41:40;99558.03;;;23.56;62.72
30708;BME280;17458;48.958;8.284;2023-07-28T00:44:24;99562.66;;;23.46;63.18
30708;BME280;17458;48.958;8.284;2023-07-28T00:47:08;99555.34;;;23.56;62.97
30708;BME280;17458;48.958;8.284;2023-07-28T00:49:52;99550.72;;;23.59;63.00
30708;BME280;17458;48.958;8.284;2023-07-28T00:52:37;99551.59;;;23.63;62.62
30708;BME280;17458;48.958;8.284;2023-07-28T00:55:22;99558.03;;;23.57;62.60
30708;BME280;17458;48.958;8.284;2023-07-28T00:58:06;99553.38;;;23.65;60.49
30708;BME280;17458;48.958;8.284;2023-07-28T01:00:53;99556.59;;;23.87;60.34
30708;BME280;17458;48.958;8.284;2023-07-28T01:03:37;99561.91;;;23.96;60.10
30708;BME280;17458;48.958;8.284;2023-07-28T01:06:46;99565.63;;;23.89;61.08
30708;BME280;17458;48.958;8.284;2023-07-28T01:09:46;99556.72;;;23.81;61.04
30708;BME280;17458;48.958;8.284;2023-07-28T01:12:30;99558.03;;;23.57;62.72
30708;BME280;17458;48.958;8.284;2023-07-28T01:15:14;99567.09;;;23.55;62.86
30708;BME280;17458;48.958;8.284;2023-07-28T01:17:59;99570.91;;;23.37;64.71
30708;BME280;17458;48.958;8.284;2023-07-28T01:20:43;99575.22;;;22.87;66.61
30708;BME280;17458;48.958;8.284;2023-07-28T01:23:44;99576.53;;;23.23;63.46
30708;BME280;17458;48.958;8.284;2023-07-28T01:26:34;99572.59;;;23.44;61.99
30708;BME280;17458;48.958;8.284;2023-07-28T01:29:19;99575.56;;;23.29;64.40
30708;BME280;17458;48.958;8.284;2023-07-28T01:32:04;99567.53;;;23.20;65.42
30708;BME280;17458;48.958;8.284;2023-07-28T01:34:49;99570.22;;;23.23;64.92
30708;BME280;17458;48.958;8.284;2023-07-28T01:37:33;99567.38;;;23.32;65.02
30708;BME280;17458;48.958;8.284;2023-07-28T01:40:17;99557.63;;;23.17;65.05
30708;BME280;17458;48.958;8.284;2023-07-28T01:43:02;99557.78;;;23.07;65.56
30708;BME280;17458;48.958;8.284;2023-07-28T01:45:46;99547.81;;;23.10;65.15
30708;BME280;17458;48.958;8.284;2023-07-28T01:48:30;99552.44;;;23.02;64.91
30708;BME280;17458;48.958;8.284;2023-07-28T01:51:14;99559.41;;;23.21;64.86
30708;BME280;17458;48.958;8.284;2023-07-28T01:53:58;99562.47;;;22.95;66.18
30708;BME280;17458;48.958;8.284;2023-07-28T01:56:42;99567.88;;;22.95;66.16
30708;BME280;17458;48.958;8.284;2023-07-28T01:59:26;99569.63;;;23.01;65.93
30708;BME280;17458;48.958;8.284;2023-07-28T02:02:10;99570.41;;;23.08;63.91
30708;BME280;17458;48.958;8.284;2023-07-28T02:04:54;99572.88;;;23.26;63.07
30708;BME280;17458;48.958;8.284;2023-07-28T02:07:38;99562.84;;;23.32;64.11
30708;BME280;17458;48.958;8.284;2023-07-28T02:10:23;99564.78;;;23.23;64.96
30708;BME280;17458;48.958;8.284;2023-07-28T02:13:07;99565.22;;;22.89;66.28
30708;BME280;17458;48.958;8.284;2023-07-28T02:15:51;99560.13;;;22.60;67.70
30708;BME280;17458;48.958;8.284;2023-07-28T02:18:35;99574.03;;;23.07;63.75
30708;BME280;17458;48.958;8.284;2023-07-28T02:21:19;99577.28;;;23.34;62.20
30708;BME280;17458;48.958;8.284;2023-07-28T02:24:03;99569.47;;;23.75;61.08
30708;BME280;17458;48.958;8.284;2023-07-28T02:26:48;99581.81;;;23.95;60.23
30708;BME280;17458;48.958;8.284;2023-07-28T02:29:32;99594.22;;;24.10;61.04
30708;BME280;17458;48.958;8.284;2023-07-28T02:32:15;99592.78;;;23.86;62.09
30708;BME280;17458;48.958;8.284;2023-07-28T02:34:59;99586.88;;;23.60;63.46
30708;BME280;17458;48.958;8.284;2023-07-28T02:37:43;99590.00;;;23.29;64.61
30708;BME280;17458;48.958;8.284;2023-07-28T02:40:27;99595.66;;;23.11;65.21
30708;BME280;17458;48.958;8.284;2023-07-28T02:43:12;99586.59;;;23.15;64.25
30708;BME280;17458;48.958;8.284;2023-07-28T02:45:57;99590.59;;;22.84;66.81
30708;BME280;17458;48.958;8.284;2023-07-28T02:48:41;99600.56;;;22.74;67.50
30708;BME280;17458;48.958;8.284;2023-07-28T02:51:25;99609.53;;;22.85;65.47
30708;BME280;17458;48.958;8.284;2023-07-28T02:54:09;99605.06;;;22.78;66.58
30708;BME280;17458;48.958;8.284;2023-07-28T02:56:53;99610.47;;;22.75;66.79
30708;BME280;17458;48.958;8.284;2023-07-28T02:59:37;99613.03;;;22.93;65.39
30708;BME280;17458;48.958;8.284;2023-07-28T03:02:21;99605.94;;;22.83;66.42
30708;BME280;17458;48.958;8.284;2023-07-28T03:05:06;99602.19;;;22.92;65.54
30708;BME280;17458;48.958;8.284;2023-07-28T03:07:56;99602.06;;;23.03;63.76
30708;BME280;17458;48.958;8.284;2023-07-28T03:10:40;99610.69;;;23.35;63.08
30708;BME280;17458;48.958;8.284;2023-07-28T03:13:24;99606.69;;;23.63;61.56
30708;BME280;17458;48.958;8.284;2023-07-28T03:16:08;99607.41;;;23.76;61.31
30708;BME280;17458;48.958;8.284;2023-07-28T03:18:53;99610.06;;;23.81;61.09
30708;BME280;17458;48.958;8.284;2023-07-28T03:24:22;99617.00;;;23.98;60.19
30708;BME280;17458;48.958;8.284;2023-07-28T03:27:06;99621.53;;;23.99;60.22
30708;BME280;17458;48.958;8.284;2023-07-28T03:29:51;99619.63;;;24.04;60.25
30708;BME280;17458;48.958;8.284;2023-07-28T03:32:38;99628.72;;;24.00;60.54
30708;BME280;17458;48.958;8.284;2023-07-28T03:35:21;99638.72;;;23.98;60.92
30708;BME280;17458;48.958;8.284;2023-07-28T03:38:15;99628.00;;;23.88;61.63
30708;BME280;17458;48.958;8.284;2023-07-28T03:40:59;99637.22;;;23.78;61.04
30708;BME280;17458;48.958;8.284;2023-07-28T03:43:43;99629.91;;;23.83;60.47
30708;BME280;17458;48.958;8.284;2023-07-28T03:46:27;99631.78;;;23.79;63.99
30708;BME280;17458;48.958;8.284;2023-07-28T03:49:11;99623.41;;;23.94;62.08
30708;BME280;17458;48.958;8.284;2023-07-28T03:51:55;99631.91;;;23.70;64.02
30708;BME280;17458;48.958;8.284;2023-07-28T03:54:39;99626.38;;;23.78;61.07
30708;BME280;17458;48.958;8.284;2023-07-28T03:57:23;99621.84;;;23.78;61.42
30708;BME280;17458;48.958;8.284;2023-07-28T04:00:08;99620.03;;;23.77;62.18
30708;BME280;17458;48.958;8.284;2023-07-28T04:02:58;99635.78;;;23.49;63.83
30708;BME280;17458;48.958;8.284;2023-07-28T04:05:42;99624.84;;;23.58;62.60
30708;BME280;17458;48.958;8.284;2023-07-28T04:08:26;99625.63;;;23.68;62.47
30708;BME280;17458;48.958;8.284;2023-07-28T04:11:10;99639.09;;;23.73;62.25
30708;BME280;17458;48.958;8.284;2023-07-28T04:13:54;99640.25;;;23.56;63.81
30708;BME280;17458;48.958;8.284;2023-07-28T04:16:38;99630.00;;;23.75;63.23
30708;BME280;17458;48.958;8.284;2023-07-28T04:19:22;99633.53;;;23.83;63.71
30708;BME280;17458;48.958;8.284;2023-07-28T04:22:06;99636.63;;;23.56;63.15
30708;BME280;17458;48.958;8.284;2023-07-28T04:24:52;99632.72;;;23.75;62.96
30708;BME280;17458;48.958;8.284;2023-07-28T04:27:38;99630.78;;;23.85;63.66
30708;BME280;17458;48.958;8.284;2023-07-28T04:30:23;99623.25;;;24.02;63.51
30708;BME280;17458;48.958;8.284;2023-07-28T04:33:07;99628.38;;;23.65;64.62
30708;BME280;17458;48.958;8.284;2023-07-28T04:35:56;99632.84;;;23.67;62.83
30708;BME280;17458;48.958;8.284;2023-07-28T04:38:50;99633.81;;;23.63;62.70
30708;BME280;17458;48.958;8.284;2023-07-28T04:41:33;99636.78;;;23.42;67.10
30708;BME280;17458;48.958;8.284;2023-07-28T04:44:18;99646.03;;;23.27;64.73
30708;BME280;17458;48.958;8.284;2023-07-28T04:47:04;99649.38;;;23.46;63.96
30708;BME280;17458;48.958;8.284;2023-07-28T04:49:48;99641.53;;;23.25;66.36
30708;BME280;17458;48.958;8.284;2023-07-28T04:53:10;99642.13;;;23.48;65.74
30708;BME280;17458;48.958;8.284;2023-07-28T04:56:13;99649.16;;;23.64;65.37
30708;BME280;17458;48.958;8.284;2023-07-28T04:58:57;99651.03;;;23.59;63.84
30708;BME280;17458;48.958;8.284;2023-07-28T05:01:42;99657.09;;;23.77;63.16
30708;BME280;17458;48.958;8.284;2023-07-28T05:04:26;99664.63;;;23.56;65.49
30708;BME280;17458;48.958;8.284;2023-07-28T05:07:10;99670.13;;;23.52;65.21
30708;BME280;17458;48.958;8.284;2023-07-28T05:09:54;99660.34;;;23.37;66.93
30708;BME280;17458;48.958;8.284;2023-07-28T05:12:41;99650.34;;;23.42;67.55
30708;BME280;17458;48.958;8.284;2023-07-28T05:15:25;99656.44;;;23.61;67.05
30708;BME280;17458;48.958;8.284;2023-07-28T05:18:09;99657.41;;;23.57;66.63
30708;BME280;17458;48.958;8.284;2023-07-28T05:20:58;99659.94;;;23.69;64.48
30708;BME280;17458;48.958;8.284;2023-07-28T05:23:42;99665.03;;;23.23;67.63
30708;BME280;17458;48.958;8.284;2023-07-28T05:26:26;99671.91;;;23.53;66.56
30708;BME280;17458;48.958;8.284;2023-07-28T05:29:10;99679.28;;;23.39;67.20
30708;BME280;17458;48.958;8.284;2023-07-28T05:31:55;99671.13;;;23.42;65.30
30708;BME280;17458;48.958;8.284;2023-07-28T05:34:52;99676.47;;;23.46;65.78
30708;BME280;17458;48.958;8.284;2023-07-28T05:37:36;99676.91;;;23.13;69.73
30708;BME280;17458;48.958;8.284;2023-07-28T05:40:20;99680.16;;;23.41;67.54
30708;BME280;17458;48.958;8.284;2023-07-28T05:43:04;99687.31;;;23.45;67.09
30708;BME280;17458;48.958;8.284;2023-07-28T05:45:48;99687.59;;;23.23;67.65
30708;BME280;17458;48.958;8.284;2023-07-28T05:48:34;99702.03;;;23.25;68.59
30708;BME280;17458;48.958;8.284;2023-07-28T05:51:18;99701.91;;;23.34;67.40
30708;BME280;17458;48.958;8.284;2023-07-28T05:54:02;99698.66;;;23.04;70.30
30708;BME280;17458;48.958;8.284;2023-07-28T05:56:46;99705.19;;;22.84;70.24
30708;BME280;17458;48.958;8.284;2023-07-28T05:59:30;99699.75;;;22.87;70.24
30708;BME280;17458;48.958;8.284;2023-07-28T06:02:14;99700.19;;;22.34;73.53
30708;BME280;17458;48.958;8.284;2023-07-28T06:05:06;99698.31;;;22.45;73.57
30708;BME280;17458;48.958;8.284;2023-07-28T06:07:50;99711.63;;;22.65;72.88
30708;BME280;17458;48.958;8.284;2023-07-28T06:10:35;99699.50;;;23.09;71.77
30708;BME280;17458;48.958;8.284;2023-07-28T06:13:19;99707.97;;;22.72;73.03
30708;BME280;17458;48.958;8.284;2023-07-28T06:16:03;99698.75;;;22.93;72.51
30708;BME280;17458;48.958;8.284;2023-07-28T06:18:48;99698.75;;;22.94;70.10
30708;BME280;17458;48.958;8.284;2023-07-28T06:21:35;99705.72;;;23.18;69.44
30708;BME280;17458;48.958;8.284;2023-07-28T06:24:20;99700.44;;;23.05;72.16
30708;BME280;17458;48.958;8.284;2023-07-28T06:27:04;99712.41;;;22.82;71.38
30708;BME280;17458;48.958;8.284;2023-07-28T06:29:53;99716.06;;;22.75;72.93
30708;BME280;17458;48.958;8.284;2023-07-28T06:32:37;99712.31;;;22.90;72.66
30708;BME280;17458;48.958;8.284;2023-07-28T06:35:21;99711.63;;;22.67;73.62
30708;BME280;17458;48.958;8.284;2023-07-28T06:38:06;99712.41;;;22.85;72.79
30708;BME280;17458;48.958;8.284;2023-07-28T06:40:51;99722.97;;;23.10;72.22
30708;BME280;17458;48.958;8.284;2023-07-28T06:43:36;99730.34;;;22.94;72.51
30708;BME280;17458;48.958;8.284;2023-07-28T06:46:20;99732.78;;;23.18;70.60
30708;BME280;17458;48.958;8.284;2023-07-28T06:49:04;99740.88;;;23.23;70.89
30708;BME280;17458;48.958;8.284;2023-07-28T06:51:48;99736.22;;;23.36;69.47
30708;BME280;17458;48.958;8.284;2023-07-28T06:54:32;99747.91;;;23.41;69.78
30708;BME280;17458;48.958;8.284;2023-07-28T06:57:17;99755.50;;;23.05;71.82
30708;BME280;17458;48.958;8.284;2023-07-28T07:00:05;99753.00;;;22.87;73.47
30708;BME280;17458;48.958;8.284;2023-07-28T07:02:49;99745.81;;;22.75;74.12
30708;BME280;17458;48.958;8.284;2023-07-28T07:05:33;99749.91;;;23.22;71.51
30708;BME280;17458;48.958;8.284;2023-07-28T07:08:18;99752.91;;;22.94;73.63
30708;BME280;17458;48.958;8.284;2023-07-28T07:11:02;99755.59;;;22.96;72.44
30708;BME280;17458;48.958;8.284;2023-07-28T07:13:46;99756.47;;;23.01;73.77
30708;BME280;17458;48.958;8.284;2023-07-28T07:16:30;99762.44;;;23.32;71.08
30708;BME280;17458;48.958;8.284;2023-07-28T07:19:14;99763.16;;;23.54;70.00
30708;BME280;17458;48.958;8.284;2023-07-28T07:21:59;99769.28;;;23.68;68.43
30708;BME280;17458;48.958;8.284;2023-07-28T07:24:44;99759.88;;;23.17;73.22
30708;BME280;17458;48.958;8.284;2023-07-28T07:27:28;99768.66;;;23.43;71.88
30708;BME280;17458;48.958;8.284;2023-07-28T07:30:12;99761.63;;;23.25;72.03
30708;BME280;17458;48.958;8.284;2023-07-28T07:32:56;99764.53;;;23.06;74.51
30708;BME280;17458;48.958;8.284;2023-07-28T07:35:40;99769.72;;;23.28;71.97
30708;BME280;17458;48.958;8.284;2023-07-28T07:38:23;99768.25;;;22.95;75.24
30708;BME280;17458;48.958;8.284;2023-07-28T07:41:08;99770.25;;;22.71;76.19
30708;BME280;17458;48.958;8.284;2023-07-28T07:43:54;99778.34;;;22.77;77.38
30708;BME280;17458;48.958;8.284;2023-07-28T07:46:39;99779.91;;;23.02;76.54
30708;BME280;17458;48.958;8.284;2023-07-28T07:49:23;99777.38;;;22.87;78.01
30708;BME280;17458;48.958;8.284;2023-07-28T07:52:07;99782.31;;;23.31;77.03
30708;BME280;17458;48.958;8.284;2023-07-28T07:54:52;99775.31;;;23.13;77.79
30708;BME280;17458;48.958;8.284;2023-07-28T07:57:36;99776.59;;;23.61;74.24
30708;BME280;17458;48.958;8.284;2023-07-28T08:00:21;99785.69;;;23.57;75.74
30708;BME280;17458;48.958;8.284;2023-07-28T08:03:05;99783.91;;;23.50;76.46
30708;BME280;17458;48.958;8.284;2023-07-28T08:05:50;99785.59;;;23.63;75.96
30708;BME280;17458;48.958;8.284;2023-07-28T08:08:34;99794.25;;;23.94;75.07
30708;BME280;17458;48.958;8.284;2023-07-28T08:11:18;99793.34;;;23.14;76.43
30708;BME280;17458;48.958;8.284;2023-07-28T08:14:02;99797.72;;;24.07;73.13
30708;BME280;17458;48.958;8.284;2023-07-28T08:16:46;99786.44;;;23.72;73.29
30708;BME280;17458;48.958;8.284;2023-07-28T08:19:30;99798.13;;;23.74;73.23
30708;BME280;17458;48.958;8.284;2023-07-28T08:22:14;99803.31;;;23.93;73.98
30708;BME280;17458;48.958;8.284;2023-07-28T08:24:58;99800.75;;;23.81;72.88
30708;BME280;17458;48.958;8.284;2023-07-28T08:27:42;99803.63;;;24.40;72.51
30708;BME280;17458;48.958;8.284;2023-07-28T08:30:26;99806.81;;;24.01;72.79
30708;BME280;17458;48.958;8.284;2023-07-28T08:33:16;99795.94;;;24.04;72.11
30708;BME280;17458;48.958;8.284;2023-07-28T08:35:59;99817.09;;;24.44;72.36
30708;BME280;17458;48.958;8.284;2023-07-28T08:38:43;99807.56;;;24.14;72.97
30708;BME280;17458;48.958;8.284;2023-07-28T08:41:28;99810.16;;;24.26;72.47
30708;BME280;17458;48.958;8.284;2023-07-28T08:44:13;99812.25;;;24.67;68.22
30708;BME280;17458;48.958;8.284;2023-07-28T08:46:58;99812.31;;;25.18;67.60
30708;BME280;17458;48.958;8.284;2023-07-28T08:49:42;99809.31;;;25.33;67.58
30708;BME280;17458;48.958;8.284;2023-07-28T08:52:26;99808.28;;;24.87;68.01
30708;BME280;17458;48.958;8.284;2023-07-28T08:55:10;99805.19;;;25.11;66.12
30708;BME280;17458;48.958;8.284;2023-07-28T08:57:55;99812.38;;;25.14;66.30
30708;BME280;17458;48.958;8.284;2023-07-28T09:00:40;99817.50;;;25.30;64.67
30708;BME280;17458;48.958;8.284;2023-07-28T09:03:24;99820.25;;;25.29;64.14
30708;BME280;17458;48.958;8.284;2023-07-28T09:06:17;99823.63;;;24.91;66.92
30708;BME280;17458;48.958;8.284;2023-07-28T09:09:09;99813.84;;;24.79;66.07
30708;BME280;17458;48.958;8.284;2023-07-28T09:12:04;99826.19;;;25.52;63.80
30708;BME280;17458;48.958;8.284;2023-07-28T09:15:14;99819.97;;;25.44;63.48
30708;BME280;17458;48.958;8.284;2023-07-28T09:18:22;99819.00;;;25.48;63.69
30708;BME280;17458;48.958;8.284;2023-07-28T09:21:26;99819.34;;;25.28;63.16
30708;BME280;17458;48.958;8.284;2023-07-28T09:24:11;99822.91;;;25.32;64.98
30708;BME280;17458;48.958;8.284;2023-07-28T09:26:56;99824.63;;;25.39;64.07
30708;BME280;17458;48.958;8.284;2023-07-28T09:29:40;99817.59;;;25.75;62.37
30708;BME280;17458;48.958;8.284;2023-07-28T09:32:30;99808.19;;;25.91;62.21
30708;BME280;17458;48.958;8.284;2023-07-28T09:35:17;99819.47;;;25.71;62.93
30708;BME280;17458;48.958;8.284;2023-07-28T09:38:02;99809.69;;;26.06;61.16
30708;BME280;17458;48.958;8.284;2023-07-28T09:40:46;99806.28;;;25.50;62.00
30708;BME280;17458;48.958;8.284;2023-07-28T09:43:32;99813.53;;;25.50;61.84
30708;BME280;17458;48.958;8.284;2023-07-28T09:46:17;99804.50;;;25.95;60.53
30708;BME280;17458;48.958;8.284;2023-07-28T09:49:05;99804.59;;;26.32;59.35
30708;BME280;17458;48.958;8.284;2023-07-28T09:51:54;99813.91;;;26.61;60.56
30708;BME280;17458;48.958;8.284;2023-07-28T09:54:43;99815.84;;;26.14;61.14
30708;BME280;17458;48.958;8.284;2023-07-28T09:57:31;99812.16;;;26.58;58.96
30708;BME280;17458;48.958;8.284;2023-07-28T10:00:18;99821.44;;;26.87;58.95
30708;BME280;17458;48.958;8.284;2023-07-28T10:03:03;99817.84;;;26.06;60.51
30708;BME280;17458;48.958;8.284;2023-07-28T10:05:47;99824.66;;;25.84;60.69
30708;BME280;17458;48.958;8.284;2023-07-28T10:08:32;99823.53;;;26.38;60.31
30708;BME280;17458;48.958;8.284;2023-07-28T10:11:16;99823.25;;;26.09;59.81
30708;BME280;17458;48.958;8.284;2023-07-28T10:14:01;99825.53;;;26.27;59.70
30708;BME280;17458;48.958;8.284;2023-07-28T10:16:45;99814.72;;;25.83;60.38
30708;BME280;17458;48.958;8.284;2023-07-28T10:19:31;99820.25;;;26.21;59.33
30708;BME280;17458;48.958;8.284;2023-07-28T10:22:18;99819.69;;;26.05;60.37
30708;BME280;17458;48.958;8.284;2023-07-28T10:25:02;99827.84;;;26.47;58.16
30708;BME280;17458;48.958;8.284;2023-07-28T10:27:47;99826.38;;;26.32;59.39
30708;BME280;17458;48.958;8.284;2023-07-28T10:30:38;99832.81;;;26.27;59.66
30708;BME280;17458;48.958;8.284;2023-07-28T10:33:36;99833.84;;;26.21;59.69
30708;BME280;17458;48.958;8.284;2023-07-28T10:42:04;99826.28;;;26.37;59.10
30708;BME280;17458;48.958;8.284;2023-07-28T10:44:48;99831.53;;;26.03;61.17
30708;BME280;17458;48.958;8.284;2023-07-28T10:47:33;99835.06;;;26.50;59.86
30708;BME280;17458;48.958;8.284;2023-07-28T10:50:18;99830.97;;;26.27;60.99
30708;BME280;17458;48.958;8.284;2023-07-28T10:53:03;99833.84;;;26.21;61.32
30708;BME280;17458;48.958;8.284;2023-07-28T10:55:47;99833.97;;;26.15;60.38
30708;BME280;17458;48.958;8.284;2023-07-28T10:58:31;99837.03;;;25.98;60.83
30708;BME280;17458;48.958;8.284;2023-07-28T11:01:15;99840.63;;;26.43;59.88
30708;BME280;17458;48.958;8.284;2023-07-28T11:04:17;99837.63;;;26.56;58.25
30708;BME280;17458;48.958;8.284;2023-07-28T11:07:01;99847.44;;;26.23;58.73
30708;BME280;17458;48.958;8.284;2023-07-28T11:09:45;99838.72;;;26.05;59.62
30708;BME280;17458;48.958;8.284;2023-07-28T11:12:29;99842.09;;;26.17;60.39
30708;BME280;17458;48.958;8.284;2023-07-28T11:15:14;99847.13;;;26.38;59.08
30708;BME280;17458;48.958;8.284;2023-07-28T11:17:59;99843.06;;;26.14;60.62
30708;BME280;17458;48.958;8.284;2023-07-28T11:20:43;99838.16;;;26.33;58.94
30708;BME280;17458;48.958;8.284;2023-07-28T11:23:28;99845.69;;;25.75;61.07
30708;BME280;17458;48.958;8.284;2023-07-28T11:26:13;99849.59;;;26.07;61.69
30708;BME280;17458;48.958;8.284;2023-07-28T11:28:59;99851.88;;;26.28;60.79
30708;BME280;17458;48.958;8.284;2023-07-28T11:31:43;99856.13;;;25.49;63.48
30708;BME280;17458;48.958;8.284;2023-07-28T11:34:27;99849.66;;;25.05;65.74
30708;BME280;17458;48.958;8.284;2023-07-28T11:37:11;99846.56;;;25.27;65.00
30708;BME280;17458;48.958;8.284;2023-07-28T11:39:56;99849.06;;;25.40;65.11
30708;BME280;17458;48.958;8.284;2023-07-28T11:42:50;99852.75;;;25.36;65.97
30708;BME280;17458;48.958;8.284;2023-07-28T11:45:35;99854.00;;;25.16;65.78
30708;BME280;17458;48.958;8.284;2023-07-28T11:48:19;99850.06;;;25.35;65.29
30708;BME280;17458;48.958;8.284;2023-07-28T11:51:03;99855.09;;;25.55;64.28
30708;BME280;17458;48.958;8.284;2023-07-28T11:53:47;99842.53;;;25.49;63.78
30708;BME280;17458;48.958;8.284;2023-07-28T11:56:31;99843.47;;;25.48;65.09
30708;BME280;17458;48.958;8.284;2023-07-28T11:59:16;99842.78;;;25.37;65.20
30708;BME280;17458;48.958;8.284;2023-07-28T12:02:02;99845.03;;;25.63;64.71
30708;BME280;17458;48.958;8.284;2023-07-28T12:04:48;99845.38;;;25.41;66.38
30708;BME280;17458;48.958;8.284;2023-07-28T12:07:34;99839.94;;;25.41;65.30
30708;BME280;17458;48.958;8.284;2023-07-28T12:10:19;99838.94;;;25.49;65.14
30708;BME280;17458;48.958;8.284;2023-07-28T12:13:05;99837.88;;;25.56;65.79
30708;BME280;17458;48.958;8.284;2023-07-28T12:15:49;99848.66;;;25.63;65.97
30708;BME280;17458;48.958;8.284;2023-07-28T12:18:33;99842.34;;;25.60;65.12
30708;BME280;17458;48.958;8.284;2023-07-28T12:21:17;99847.97;;;25.51;68.27
30708;BME280;17458;48.958;8.284;2023-07-28T12:24:01;99856.81;;;25.60;65.80
30708;BME280;17458;48.958;8.284;2023-07-28T12:26:46;99858.66;;;25.58;68.17
30708;BME280;17458;48.958;8.284;2023-07-28T12:29:34;99854.38;;;24.96;68.47
30708;BME280;17458;48.958;8.284;2023-07-28T12:32:18;99856.56;;;24.69;69.25
30708;BME280;17458;48.958;8.284;2023-07-28T12:35:03;99868.38;;;24.65;70.90
30708;BME280;17458;48.958;8.284;2023-07-28T12:37:47;99862.75;;;24.78;70.61
30708;BME280;17458;48.958;8.284;2023-07-28T12:40:32;99868.44;;;24.59;71.82
30708;BME280;17458;48.958;8.284;2023-07-28T12:43:17;99856.56;;;24.69;69.84
30708;BME280;17458;48.958;8.284;2023-07-28T12:46:01;99862.22;;;24.53;72.82
30708;BME280;17458;48.958;8.284;2023-07-28T12:48:45;99857.00;;;24.39;72.54
30708;BME280;17458;48.958;8.284;2023-07-28T12:51:30;99865.09;;;24.42;71.84
30708;BME280;17458;48.958;8.284;2023-07-28T12:54:13;99861.97;;;24.02;75.09
30708;BME280;17458;48.958;8.284;2023-07-28T12:56:57;99865.84;;;24.53;72.88
30708;BME280;17458;48.958;8.284;2023-07-28T12:59:41;99865.28;;;24.88;71.77
30708;BME280;17458;48.958;8.284;2023-07-28T13:02:25;99868.88;;;24.92;71.35
30708;BME280;17458;48.958;8.284;2023-07-28T13:05:10;99869.81;;;24.89;71.89
30708;BME280;17458;48.958;8.284;2023-07-28T13:07:54;99869.63;;;25.01;72.26
30708;BME280;17458;48.958;8.284;2023-07-28T13:10:38;99875.16;;;24.98;71.71
30708;BME280;17458;48.958;8.284;2023-07-28T13:13:22;99868.66;;;25.07;70.66
30708;BME280;17458;48.958;8.284;2023-07-28T13:16:06;99868.44;;;24.59;74.13
30708;BME280;17458;48.958;8.284;2023-07-28T13:18:50;99866.94;;;25.01;69.79
30708;BME280;17458;48.958;8.284;2023-07-28T13:21:34;99852.88;;;24.72;72.19
30708;BME280;17458;48.958;8.284;2023-07-28T13:24:18;99861.88;;;24.76;73.51
30708;BME280;17458;48.958;8.284;2023-07-28T13:27:03;99872.59;;;24.85;72.36
30708;BME280;17458;48.958;8.284;2023-07-28T13:29:47;99876.34;;;24.78;71.66
30708;BME280;17458;48.958;8.284;2023-07-28T13:32:31;99853.13;;;25.14;71.42
30708;BME280;17458;48.958;8.284;2023-07-28T13:35:15;99842.50;;;25.00;72.56
30708;BME280;17458;48.958;8.284;2023-07-28T13:37:59;99836.78;;;24.58;72.86
30708;BME280;17458;48.958;8.284;2023-07-28T13:40:43;99839.16;;;24.83;73.50
30708;BME280;17458;48.958;8.284;2023-07-28T13:43:27;99844.03;;;24.58;73.69
30708;BME280;17458;48.958;8.284;2023-07-28T13:46:11;99844.50;;;24.86;72.93
30708;BME280;17458;48.958;8.284;2023-07-28T13:48:55;99843.59;;;24.85;73.65
30708;BME280;17458;48.958;8.284;2023-07-28T13:51:39;99851.38;;;24.53;74.29
30708;BME280;17458;48.958;8.284;2023-07-28T13:54:23;99866.63;;;24.60;73.74
30708;BME280;17458;48.958;8.284;2023-07-28T13:57:08;99862.44;;;24.37;76.57
30708;BME280;17458;48.958;8.284;2023-07-28T13:59:51;99865.00;;;23.73;77.56
30708;BME280;17458;48.958;8.284;2023-07-28T14:02:36;99871.88;;;24.04;77.25
30708;BME280;17458;48.958;8.284;2023-07-28T14:05:20;99871.88;;;24.04;75.76
30708;BME280;17458;48.958;8.284;2023-07-28T14:08:06;99865.84;;;23.81;78.18
30708;BME280;17458;48.958;8.284;2023-07-28T14:10:52;99865.81;;;23.84;78.36
30708;BME280;17458;48.958;8.284;2023-07-28T14:13:36;99867.69;;;23.76;77.29
30708;BME280;17458;48.958;8.284;2023-07-28T14:16:20;99881.25;;;23.75;79.94
30708;BME280;17458;48.958;8.284;2023-07-28T14:19:04;99870.41;;;23.76;80.74
30708;BME280;17458;48.958;8.284;2023-07-28T14:21:48;99874.94;;;23.73;81.23
30708;BME280;17458;48.958;8.284;2023-07-28T14:24:32;99876.84;;;23.67;80.33
30708;BME280;17458;48.958;8.284;2023-07-28T14:27:16;99875.66;;;23.90;79.29
30708;BME280;17458;48.958;8.284;2023-07-28T14:30:01;99875.84;;;23.75;81.25
30708;BME280;17458;48.958;8.284;2023-07-28T14:32:44;99874.94;;;23.73;80.37
30708;BME280;17458;48.958;8.284;2023-07-28T14:35:28;99878.38;;;23.91;78.33
30708;BME280;17458;48.958;8.284;2023-07-28T14:38:12;99882.63;;;24.14;77.76
30708;BME280;17458;48.958;8.284;2023-07-28T14:40:57;99883.44;;;24.25;77.61
30708;BME280;17458;48.958;8.284;2023-07-28T14:43:41;99875.25;;;24.28;78.37